sensor_id;sensor_type;location;lat;lon;timestamp;P1;durP1;ratioP1;P2;durP2;ratioP2
48765;SDS011;65794;51.836;5.002;2023-10-13T00:02:10;16.98;;;9.68;;
48765;SDS011;65794;51.836;5.002;2023-10-13T00:04:37;21.10;;;10.82;;
48765;SDS011;65794;51.836;5.002;2023-10-13T00:07:04;19.00;;;11.00;;
48765;SDS011;65794;51.836;5.002;2023-10-13T00:09:35;25.20;;;11.75;;
48765;SDS011;65794;51.836;5.002;2023-10-13T00:12:04;25.88;;;12.20;;
48765;SDS011;65794;51.836;5.002;2023-10-13T00:14:32;28.02;;;12.65;;
48765;SDS011;65794;51.836;5.002;2023-10-13T00:17:01;25.00;;;12.57;;
48765;SDS011;65794;51.836;5.002;2023-10-13T00:19:32;27.40;;;12.30;;
48765;SDS011;65794;51.836;5.002;2023-10-13T00:22:25;28.65;;;12.88;;
48765;SDS011;65794;51.836;5.002;2023-10-13T00:24:54;27.27;;;12.18;;
48765;SDS011;65794;51.836;5.002;2023-10-13T00:27:25;25.33;;;11.57;;
48765;SDS011;65794;51.836;5.002;2023-10-13T00:30:05;22.90;;;10.25;;
48765;SDS011;65794;51.836;5.002;2023-10-13T00:32:44;23.05;;;10.82;;
48765;SDS011;65794;51.836;5.002;2023-10-13T00:35:13;19.40;;;10.02;;
48765;SDS011;65794;51.836;5.002;2023-10-13T00:37:52;26.58;;;10.48;;
48765;SDS011;65794;51.836;5.002;2023-10-13T00:40:22;23.95;;;9.77;;
48765;SDS011;65794;51.836;5.002;2023-10-13T00:42:58;29.83;;;9.95;;
48765;SDS011;65794;51.836;5.002;2023-10-13T00:45:55;23.98;;;9.63;;
48765;SDS011;65794;51.836;5.002;2023-10-13T00:48:33;35.88;;;8.93;;
48765;SDS011;65794;51.836;5.002;2023-10-13T00:51:01;30.10;;;9.95;;
48765;SDS011;65794;51.836;5.002;2023-10-13T00:53:36;26.73;;;9.50;;
48765;SDS011;65794;51.836;5.002;2023-10-13T00:56:07;17.38;;;8.48;;
48765;SDS011;65794;51.836;5.002;2023-10-13T00:58:34;19.33;;;8.02;;
48765;SDS011;65794;51.836;5.002;2023-10-13T01:01:02;15.35;;;8.05;;
48765;SDS011;65794;51.836;5.002;2023-10-13T01:03:45;16.15;;;7.22;;
48765;SDS011;65794;51.836;5.002;2023-10-13T01:06:15;13.73;;;6.85;;
48765;SDS011;65794;51.836;5.002;2023-10-13T01:08:45;22.02;;;7.30;;
48765;SDS011;65794;51.836;5.002;2023-10-13T01:11:11;16.98;;;6.90;;
48765;SDS011;65794;51.836;5.002;2023-10-13T01:13:40;21.08;;;7.80;;
48765;SDS011;65794;51.836;5.002;2023-10-13T01:16:08;20.23;;;7.03;;
48765;SDS011;65794;51.836;5.002;2023-10-13T01:18:35;24.00;;;7.25;;
48765;SDS011;65794;51.836;5.002;2023-10-13T01:21:16;15.57;;;6.38;;
48765;SDS011;65794;51.836;5.002;2023-10-13T01:23:46;17.55;;;7.28;;
48765;SDS011;65794;51.836;5.002;2023-10-13T01:26:14;14.70;;;6.10;;
48765;SDS011;65794;51.836;5.002;2023-10-13T01:29:07;19.35;;;7.18;;
48765;SDS011;65794;51.836;5.002;2023-10-13T01:36:39;25.48;;;6.63;;
48765;SDS011;65794;51.836;5.002;2023-10-13T01:39:07;14.38;;;5.88;;
48765;SDS011;65794;51.836;5.002;2023-10-13T01:41:34;18.98;;;6.45;;
48765;SDS011;65794;51.836;5.002;2023-10-13T01:44:03;17.33;;;6.45;;
48765;SDS011;65794;51.836;5.002;2023-10-13T01:46:31;21.75;;;6.75;;
48765;SDS011;65794;51.836;5.002;2023-10-13T01:48:59;16.48;;;6.18;;
48765;SDS011;65794;51.836;5.002;2023-10-13T01:51:25;15.35;;;5.85;;
48765;SDS011;65794;51.836;5.002;2023-10-13T01:53:54;17.52;;;6.55;;
48765;SDS011;65794;51.836;5.002;2023-10-13T01:56:23;20.00;;;6.05;;
48765;SDS011;65794;51.836;5.002;2023-10-13T01:58:51;12.98;;;6.30;;
48765;SDS011;65794;51.836;5.002;2023-10-13T02:01:18;17.40;;;6.50;;
48765;SDS011;65794;51.836;5.002;2023-10-13T02:03:55;25.67;;;6.80;;
48765;SDS011;65794;51.836;5.002;2023-10-13T02:06:28;16.98;;;6.43;;
48765;SDS011;65794;51.836;5.002;2023-10-13T02:08:59;15.75;;;6.53;;
48765;SDS011;65794;51.836;5.002;2023-10-13T02:11:38;19.95;;;6.20;;
48765;SDS011;65794;51.836;5.002;2023-10-13T02:14:04;14.32;;;5.70;;
48765;SDS011;65794;51.836;5.002;2023-10-13T02:16:32;14.25;;;6.10;;
48765;SDS011;65794;51.836;5.002;2023-10-13T02:18:59;16.08;;;5.03;;
48765;SDS011;65794;51.836;5.002;2023-10-13T02:21:31;16.10;;;6.30;;
48765;SDS011;65794;51.836;5.002;2023-10-13T02:23:58;11.70;;;5.88;;
48765;SDS011;65794;51.836;5.002;2023-10-13T02:26:30;19.52;;;5.68;;
48765;SDS011;65794;51.836;5.002;2023-10-13T02:28:58;17.17;;;5.72;;
48765;SDS011;65794;51.836;5.002;2023-10-13T02:31:27;23.02;;;5.85;;
48765;SDS011;65794;51.836;5.002;2023-10-13T02:33:54;20.88;;;5.72;;
48765;SDS011;65794;51.836;5.002;2023-10-13T02:36:22;19.65;;;5.72;;
48765;SDS011;65794;51.836;5.002;2023-10-13T02:38:49;15.93;;;5.43;;
48765;SDS011;65794;51.836;5.002;2023-10-13T02:41:18;12.95;;;5.40;;
48765;SDS011;65794;51.836;5.002;2023-10-13T02:43:54;12.55;;;4.65;;
48765;SDS011;65794;51.836;5.002;2023-10-13T02:46:22;15.20;;;4.53;;
48765;SDS011;65794;51.836;5.002;2023-10-13T02:48:51;16.80;;;5.07;;
48765;SDS011;65794;51.836;5.002;2023-10-13T02:51:22;16.58;;;4.70;;
48765;SDS011;65794;51.836;5.002;2023-10-13T02:53:57;23.67;;;5.10;;
48765;SDS011;65794;51.836;5.002;2023-10-13T02:56:29;19.30;;;5.30;;
48765;SDS011;65794;51.836;5.002;2023-10-13T02:58:56;14.25;;;5.22;;
48765;SDS011;65794;51.836;5.002;2023-10-13T03:01:23;13.77;;;5.35;;
48765;SDS011;65794;51.836;5.002;2023-10-13T03:04:01;12.20;;;5.35;;
48765;SDS011;65794;51.836;5.002;2023-10-13T03:06:29;17.38;;;5.78;;
48765;SDS011;65794;51.836;5.002;2023-10-13T03:09:00;13.98;;;5.50;;
48765;SDS011;65794;51.836;5.002;2023-10-13T03:11:43;19.77;;;5.97;;
48765;SDS011;65794;51.836;5.002;2023-10-13T03:14:20;17.17;;;5.75;;
48765;SDS011;65794;51.836;5.002;2023-10-13T03:17:07;21.38;;;6.38;;
48765;SDS011;65794;51.836;5.002;2023-10-13T03:19:45;25.20;;;7.95;;
48765;SDS011;65794;51.836;5.002;2023-10-13T03:22:18;22.13;;;8.38;;
48765;SDS011;65794;51.836;5.002;2023-10-13T03:24:45;17.58;;;7.13;;
48765;SDS011;65794;51.836;5.002;2023-10-13T03:27:13;20.58;;;7.75;;
48765;SDS011;65794;51.836;5.002;2023-10-13T03:29:44;15.13;;;7.85;;
48765;SDS011;65794;51.836;5.002;2023-10-13T03:32:11;14.40;;;8.15;;
48765;SDS011;65794;51.836;5.002;2023-10-13T03:34:39;17.52;;;7.50;;
48765;SDS011;65794;51.836;5.002;2023-10-13T03:37:17;21.23;;;7.55;;
48765;SDS011;65794;51.836;5.002;2023-10-13T03:42:55;16.98;;;7.68;;
48765;SDS011;65794;51.836;5.002;2023-10-13T03:48:11;20.35;;;7.82;;
48765;SDS011;65794;51.836;5.002;2023-10-13T03:50:48;15.68;;;6.95;;
48765;SDS011;65794;51.836;5.002;2023-10-13T03:53:24;17.05;;;7.70;;
48765;SDS011;65794;51.836;5.002;2023-10-13T03:55:52;22.38;;;8.35;;
48765;SDS011;65794;51.836;5.002;2023-10-13T03:58:37;14.73;;;7.30;;
48765;SDS011;65794;51.836;5.002;2023-10-13T04:01:05;19.77;;;8.15;;
48765;SDS011;65794;51.836;5.002;2023-10-13T04:03:32;16.55;;;8.45;;
48765;SDS011;65794;51.836;5.002;2023-10-13T04:06:06;21.70;;;8.65;;
48765;SDS011;65794;51.836;5.002;2023-10-13T04:08:33;21.88;;;9.52;;
48765;SDS011;65794;51.836;5.002;2023-10-13T04:11:25;26.35;;;10.38;;
48765;SDS011;65794;51.836;5.002;2023-10-13T04:14:30;20.15;;;9.48;;
48765;SDS011;65794;51.836;5.002;2023-10-13T04:17:13;21.30;;;9.77;;
48765;SDS011;65794;51.836;5.002;2023-10-13T04:19:49;23.33;;;9.52;;
48765;SDS011;65794;51.836;5.002;2023-10-13T04:25:21;22.27;;;9.82;;
48765;SDS011;65794;51.836;5.002;2023-10-13T04:28:13;23.77;;;11.88;;
48765;SDS011;65794;51.836;5.002;2023-10-13T04:33:25;25.33;;;12.38;;
48765;SDS011;65794;51.836;5.002;2023-10-13T04:36:05;26.73;;;13.63;;
48765;SDS011;65794;51.836;5.002;2023-10-13T04:38:41;29.20;;;13.10;;
48765;SDS011;65794;51.836;5.002;2023-10-13T04:41:34;35.45;;;13.57;;
48765;SDS011;65794;51.836;5.002;2023-10-13T04:44:13;31.83;;;15.07;;
48765;SDS011;65794;51.836;5.002;2023-10-13T04:46:59;34.47;;;15.55;;
48765;SDS011;65794;51.836;5.002;2023-10-13T04:49:26;32.45;;;15.35;;
48765;SDS011;65794;51.836;5.002;2023-10-13T04:52:16;32.53;;;15.23;;
48765;SDS011;65794;51.836;5.002;2023-10-13T04:55:02;37.10;;;16.00;;
48765;SDS011;65794;51.836;5.002;2023-10-13T04:57:58;27.05;;;14.55;;
48765;SDS011;65794;51.836;5.002;2023-10-13T05:00:37;25.70;;;14.30;;
48765;SDS011;65794;51.836;5.002;2023-10-13T05:03:42;35.10;;;14.10;;
48765;SDS011;65794;51.836;5.002;2023-10-13T05:06:27;26.23;;;13.77;;
48765;SDS011;65794;51.836;5.002;2023-10-13T05:09:13;25.20;;;13.00;;
48765;SDS011;65794;51.836;5.002;2023-10-13T05:11:58;27.33;;;13.47;;
48765;SDS011;65794;51.836;5.002;2023-10-13T05:14:44;21.00;;;11.00;;
48765;SDS011;65794;51.836;5.002;2023-10-13T05:17:30;20.80;;;11.25;;
48765;SDS011;65794;51.836;5.002;2023-10-13T05:20:16;20.52;;;9.43;;
48765;SDS011;65794;51.836;5.002;2023-10-13T05:23:03;18.45;;;8.77;;
48765;SDS011;65794;51.836;5.002;2023-10-13T05:25:48;17.38;;;7.65;;
48765;SDS011;65794;51.836;5.002;2023-10-13T05:28:33;17.70;;;8.55;;
48765;SDS011;65794;51.836;5.002;2023-10-13T05:31:19;16.90;;;7.85;;
48765;SDS011;65794;51.836;5.002;2023-10-13T05:34:18;20.77;;;7.80;;
48765;SDS011;65794;51.836;5.002;2023-10-13T05:37:20;18.02;;;7.82;;
48765;SDS011;65794;51.836;5.002;2023-10-13T05:40:06;17.33;;;7.57;;
48765;SDS011;65794;51.836;5.002;2023-10-13T05:42:52;13.45;;;6.95;;
48765;SDS011;65794;51.836;5.002;2023-10-13T05:45:37;19.05;;;7.85;;
48765;SDS011;65794;51.836;5.002;2023-10-13T05:48:24;12.15;;;6.82;;
48765;SDS011;65794;51.836;5.002;2023-10-13T05:51:09;19.63;;;8.30;;
48765;SDS011;65794;51.836;5.002;2023-10-13T05:53:54;25.23;;;9.25;;
48765;SDS011;65794;51.836;5.002;2023-10-13T05:56:40;21.00;;;8.43;;
48765;SDS011;65794;51.836;5.002;2023-10-13T05:59:26;19.92;;;8.75;;
48765;SDS011;65794;51.836;5.002;2023-10-13T06:02:12;19.42;;;9.82;;
48765;SDS011;65794;51.836;5.002;2023-10-13T06:05:01;17.38;;;8.80;;
48765;SDS011;65794;51.836;5.002;2023-10-13T06:07:47;24.65;;;10.02;;
48765;SDS011;65794;51.836;5.002;2023-10-13T06:10:32;24.10;;;10.30;;
48765;SDS011;65794;51.836;5.002;2023-10-13T06:13:17;20.92;;;9.35;;
48765;SDS011;65794;51.836;5.002;2023-10-13T06:16:06;16.70;;;9.18;;
48765;SDS011;65794;51.836;5.002;2023-10-13T06:18:51;17.15;;;9.10;;
48765;SDS011;65794;51.836;5.002;2023-10-13T06:21:37;19.27;;;9.67;;
48765;SDS011;65794;51.836;5.002;2023-10-13T06:24:23;20.45;;;9.77;;
48765;SDS011;65794;51.836;5.002;2023-10-13T06:27:09;25.10;;;10.68;;
48765;SDS011;65794;51.836;5.002;2023-10-13T06:29:56;18.80;;;10.55;;
48765;SDS011;65794;51.836;5.002;2023-10-13T06:32:23;26.17;;;11.15;;
48765;SDS011;65794;51.836;5.002;2023-10-13T06:34:53;25.70;;;11.25;;
48765;SDS011;65794;51.836;5.002;2023-10-13T06:37:24;22.80;;;10.13;;
48765;SDS011;65794;51.836;5.002;2023-10-13T06:39:59;23.02;;;10.85;;
48765;SDS011;65794;51.836;5.002;2023-10-13T06:42:32;22.15;;;10.68;;
48765;SDS011;65794;51.836;5.002;2023-10-13T06:45:01;20.40;;;10.52;;
48765;SDS011;65794;51.836;5.002;2023-10-13T06:47:35;20.95;;;10.68;;
48765;SDS011;65794;51.836;5.002;2023-10-13T06:50:14;17.48;;;9.55;;
48765;SDS011;65794;51.836;5.002;2023-10-13T06:52:46;20.48;;;9.98;;
48765;SDS011;65794;51.836;5.002;2023-10-13T06:55:16;20.27;;;9.52;;
48765;SDS011;65794;51.836;5.002;2023-10-13T06:57:54;20.08;;;10.23;;
48765;SDS011;65794;51.836;5.002;2023-10-13T07:00:26;19.67;;;8.65;;
48765;SDS011;65794;51.836;5.002;2023-10-13T07:02:56;24.92;;;9.90;;
48765;SDS011;65794;51.836;5.002;2023-10-13T07:05:34;30.17;;;9.30;;
48765;SDS011;65794;51.836;5.002;2023-10-13T07:08:01;19.30;;;8.25;;
48765;SDS011;65794;51.836;5.002;2023-10-13T07:10:31;25.48;;;9.05;;
48765;SDS011;65794;51.836;5.002;2023-10-13T07:13:01;21.10;;;8.48;;
48765;SDS011;65794;51.836;5.002;2023-10-13T07:15:31;22.75;;;8.55;;
48765;SDS011;65794;51.836;5.002;2023-10-13T07:17:57;22.70;;;8.32;;
48765;SDS011;65794;51.836;5.002;2023-10-13T07:20:26;15.50;;;8.27;;
48765;SDS011;65794;51.836;5.002;2023-10-13T07:22:55;25.23;;;8.65;;
48765;SDS011;65794;51.836;5.002;2023-10-13T07:25:30;19.95;;;8.63;;
48765;SDS011;65794;51.836;5.002;2023-10-13T07:27:59;28.27;;;7.97;;
48765;SDS011;65794;51.836;5.002;2023-10-13T07:30:26;19.27;;;7.15;;
48765;SDS011;65794;51.836;5.002;2023-10-13T07:32:54;17.67;;;6.95;;
48765;SDS011;65794;51.836;5.002;2023-10-13T07:35:24;18.23;;;7.25;;
48765;SDS011;65794;51.836;5.002;2023-10-13T07:37:51;26.65;;;8.52;;
48765;SDS011;65794;51.836;5.002;2023-10-13T07:40:22;19.60;;;6.82;;
48765;SDS011;65794;51.836;5.002;2023-10-13T07:42:55;24.02;;;8.13;;
48765;SDS011;65794;51.836;5.002;2023-10-13T07:45:30;20.42;;;8.25;;
48765;SDS011;65794;51.836;5.002;2023-10-13T07:48:04;19.02;;;7.75;;
48765;SDS011;65794;51.836;5.002;2023-10-13T07:53:45;17.05;;;6.85;;
48765;SDS011;65794;51.836;5.002;2023-10-13T07:56:15;23.02;;;7.35;;
48765;SDS011;65794;51.836;5.002;2023-10-13T07:58:45;27.38;;;7.53;;
48765;SDS011;65794;51.836;5.002;2023-10-13T08:01:30;20.58;;;6.78;;
48765;SDS011;65794;51.836;5.002;2023-10-13T08:03:57;24.15;;;7.15;;
48765;SDS011;65794;51.836;5.002;2023-10-13T08:06:41;18.98;;;6.05;;
48765;SDS011;65794;51.836;5.002;2023-10-13T08:09:11;16.08;;;6.25;;
48765;SDS011;65794;51.836;5.002;2023-10-13T08:11:56;26.15;;;5.85;;
48765;SDS011;65794;51.836;5.002;2023-10-13T08:14:23;14.77;;;6.15;;
48765;SDS011;65794;51.836;5.002;2023-10-13T08:17:08;14.73;;;6.00;;
48765;SDS011;65794;51.836;5.002;2023-10-13T08:19:38;21.48;;;5.78;;
48765;SDS011;65794;51.836;5.002;2023-10-13T08:22:16;21.58;;;5.10;;
48765;SDS011;65794;51.836;5.002;2023-10-13T08:24:43;20.15;;;5.97;;
48765;SDS011;65794;51.836;5.002;2023-10-13T08:27:10;12.30;;;5.75;;
48765;SDS011;65794;51.836;5.002;2023-10-13T08:29:55;14.48;;;5.88;;
48765;SDS011;65794;51.836;5.002;2023-10-13T08:32:22;18.65;;;5.80;;
48765;SDS011;65794;51.836;5.002;2023-10-13T08:34:59;13.95;;;5.30;;
48765;SDS011;65794;51.836;5.002;2023-10-13T08:37:35;14.65;;;5.00;;
48765;SDS011;65794;51.836;5.002;2023-10-13T08:40:22;15.77;;;4.53;;
48765;SDS011;65794;51.836;5.002;2023-10-13T08:43:10;17.00;;;5.70;;
48765;SDS011;65794;51.836;5.002;2023-10-13T08:45:39;20.98;;;5.72;;
48765;SDS011;65794;51.836;5.002;2023-10-13T08:48:06;17.38;;;5.38;;
48765;SDS011;65794;51.836;5.002;2023-10-13T08:50:42;19.85;;;4.93;;
48765;SDS011;65794;51.836;5.002;2023-10-13T08:58:44;14.63;;;5.05;;
48765;SDS011;65794;51.836;5.002;2023-10-13T09:01:26;17.35;;;5.03;;
48765;SDS011;65794;51.836;5.002;2023-10-13T09:04:15;17.58;;;5.13;;
48765;SDS011;65794;51.836;5.002;2023-10-13T09:09:16;17.48;;;5.65;;
48765;SDS011;65794;51.836;5.002;2023-10-13T09:12:01;15.10;;;5.63;;
48765;SDS011;65794;51.836;5.002;2023-10-13T09:14:39;16.33;;;4.93;;
48765;SDS011;65794;51.836;5.002;2023-10-13T09:17:13;18.25;;;5.25;;
48765;SDS011;65794;51.836;5.002;2023-10-13T09:19:50;26.77;;;5.82;;
48765;SDS011;65794;51.836;5.002;2023-10-13T09:22:26;18.02;;;4.93;;
48765;SDS011;65794;51.836;5.002;2023-10-13T09:25:03;13.85;;;4.63;;
48765;SDS011;65794;51.836;5.002;2023-10-13T09:27:32;14.00;;;5.03;;
48765;SDS011;65794;51.836;5.002;2023-10-13T09:30:00;18.15;;;5.40;;
48765;SDS011;65794;51.836;5.002;2023-10-13T09:32:45;26.65;;;5.20;;
48765;SDS011;65794;51.836;5.002;2023-10-13T09:35:19;15.50;;;5.15;;
48765;SDS011;65794;51.836;5.002;2023-10-13T09:37:49;25.08;;;5.72;;
48765;SDS011;65794;51.836;5.002;2023-10-13T09:40:17;17.88;;;5.10;;
48765;SDS011;65794;51.836;5.002;2023-10-13T09:43:00;16.25;;;5.35;;
48765;SDS011;65794;51.836;5.002;2023-10-13T09:45:34;18.38;;;4.75;;
48765;SDS011;65794;51.836;5.002;2023-10-13T09:48:37;17.63;;;5.13;;
48765;SDS011;65794;51.836;5.002;2023-10-13T09:51:11;15.55;;;5.13;;
48765;SDS011;65794;51.836;5.002;2023-10-13T09:53:39;14.10;;;5.05;;
48765;SDS011;65794;51.836;5.002;2023-10-13T09:56:29;20.15;;;5.25;;
48765;SDS011;65794;51.836;5.002;2023-10-13T10:01:37;17.70;;;5.70;;
48765;SDS011;65794;51.836;5.002;2023-10-13T10:04:09;13.85;;;5.10;;
48765;SDS011;65794;51.836;5.002;2023-10-13T10:06:40;15.60;;;5.05;;
48765;SDS011;65794;51.836;5.002;2023-10-13T10:09:25;16.63;;;5.55;;
48765;SDS011;65794;51.836;5.002;2023-10-13T10:17:09;17.35;;;5.13;;
48765;SDS011;65794;51.836;5.002;2023-10-13T10:19:46;16.63;;;5.97;;
48765;SDS011;65794;51.836;5.002;2023-10-13T10:22:13;16.92;;;4.68;;
48765;SDS011;65794;51.836;5.002;2023-10-13T10:24:56;16.02;;;5.18;;
48765;SDS011;65794;51.836;5.002;2023-10-13T10:27:25;26.25;;;5.13;;
48765;SDS011;65794;51.836;5.002;2023-10-13T10:29:55;17.15;;;5.47;;
48765;SDS011;65794;51.836;5.002;2023-10-13T10:32:35;12.48;;;5.38;;
48765;SDS011;65794;51.836;5.002;2023-10-13T10:35:06;13.50;;;5.35;;
48765;SDS011;65794;51.836;5.002;2023-10-13T10:37:34;15.50;;;5.18;;
48765;SDS011;65794;51.836;5.002;2023-10-13T10:40:09;23.55;;;5.70;;
48765;SDS011;65794;51.836;5.002;2023-10-13T10:42:49;15.50;;;5.07;;
48765;SDS011;65794;51.836;5.002;2023-10-13T10:45:16;15.82;;;5.53;;
48765;SDS011;65794;51.836;5.002;2023-10-13T10:47:48;11.68;;;4.55;;
48765;SDS011;65794;51.836;5.002;2023-10-13T10:50:24;14.10;;;4.82;;
48765;SDS011;65794;51.836;5.002;2023-10-13T10:52:53;22.88;;;4.90;;
48765;SDS011;65794;51.836;5.002;2023-10-13T10:55:24;15.38;;;4.80;;
48765;SDS011;65794;51.836;5.002;2023-10-13T10:57:58;14.32;;;5.00;;
48765;SDS011;65794;51.836;5.002;2023-10-13T11:00:25;17.85;;;5.13;;
48765;SDS011;65794;51.836;5.002;2023-10-13T11:03:04;21.67;;;5.30;;
48765;SDS011;65794;51.836;5.002;2023-10-13T11:05:41;16.85;;;5.47;;
48765;SDS011;65794;51.836;5.002;2023-10-13T11:08:08;19.48;;;5.70;;
48765;SDS011;65794;51.836;5.002;2023-10-13T11:10:51;15.57;;;4.97;;
48765;SDS011;65794;51.836;5.002;2023-10-13T11:13:18;26.23;;;5.55;;
48765;SDS011;65794;51.836;5.002;2023-10-13T11:15:48;29.67;;;5.03;;
48765;SDS011;65794;51.836;5.002;2023-10-13T11:18:17;20.60;;;4.97;;
48765;SDS011;65794;51.836;5.002;2023-10-13T11:20:50;17.67;;;5.30;;
48765;SDS011;65794;51.836;5.002;2023-10-13T11:23:20;21.27;;;4.97;;
48765;SDS011;65794;51.836;5.002;2023-10-13T11:25:56;11.30;;;3.67;;
48765;SDS011;65794;51.836;5.002;2023-10-13T11:28:23;22.85;;;4.65;;
48765;SDS011;65794;51.836;5.002;2023-10-13T11:30:56;14.63;;;4.97;;
48765;SDS011;65794;51.836;5.002;2023-10-13T11:33:26;15.30;;;5.50;;
48765;SDS011;65794;51.836;5.002;2023-10-13T11:35:55;12.88;;;5.07;;
48765;SDS011;65794;51.836;5.002;2023-10-13T11:38:23;13.93;;;5.00;;
48765;SDS011;65794;51.836;5.002;2023-10-13T11:41:01;20.13;;;5.30;;
48765;SDS011;65794;51.836;5.002;2023-10-13T11:43:49;18.50;;;5.22;;
48765;SDS011;65794;51.836;5.002;2023-10-13T11:49:06;17.38;;;5.13;;
48765;SDS011;65794;51.836;5.002;2023-10-13T11:51:45;19.02;;;5.63;;
48765;SDS011;65794;51.836;5.002;2023-10-13T11:54:13;17.80;;;5.47;;
48765;SDS011;65794;51.836;5.002;2023-10-13T11:56:40;19.35;;;5.70;;
48765;SDS011;65794;51.836;5.002;2023-10-13T11:59:06;24.65;;;6.30;;
48765;SDS011;65794;51.836;5.002;2023-10-13T12:01:43;18.75;;;5.88;;
48765;SDS011;65794;51.836;5.002;2023-10-13T12:04:28;16.17;;;5.45;;
48765;SDS011;65794;51.836;5.002;2023-10-13T12:07:10;17.98;;;5.45;;
48765;SDS011;65794;51.836;5.002;2023-10-13T12:14:49;17.40;;;4.35;;
48765;SDS011;65794;51.836;5.002;2023-10-13T12:17:19;24.10;;;5.40;;
48765;SDS011;65794;51.836;5.002;2023-10-13T12:19:52;22.70;;;5.78;;
48765;SDS011;65794;51.836;5.002;2023-10-13T12:22:19;17.92;;;5.75;;
48765;SDS011;65794;51.836;5.002;2023-10-13T12:24:55;19.80;;;6.18;;
48765;SDS011;65794;51.836;5.002;2023-10-13T12:27:21;18.80;;;5.13;;
48765;SDS011;65794;51.836;5.002;2023-10-13T12:30:02;17.67;;;4.63;;
48765;SDS011;65794;51.836;5.002;2023-10-13T12:32:40;18.13;;;5.35;;
48765;SDS011;65794;51.836;5.002;2023-10-13T12:35:11;22.73;;;5.40;;
48765;SDS011;65794;51.836;5.002;2023-10-13T12:37:38;12.77;;;5.25;;
48765;SDS011;65794;51.836;5.002;2023-10-13T12:40:05;17.65;;;6.05;;
48765;SDS011;65794;51.836;5.002;2023-10-13T12:42:51;19.85;;;5.47;;
48765;SDS011;65794;51.836;5.002;2023-10-13T12:45:43;18.97;;;5.60;;
48765;SDS011;65794;51.836;5.002;2023-10-13T12:48:29;19.02;;;5.43;;
48765;SDS011;65794;51.836;5.002;2023-10-13T12:51:14;16.77;;;5.43;;
48765;SDS011;65794;51.836;5.002;2023-10-13T12:54:07;19.92;;;5.90;;
48765;SDS011;65794;51.836;5.002;2023-10-13T12:56:50;17.15;;;5.47;;
48765;SDS011;65794;51.836;5.002;2023-10-13T12:59:23;19.05;;;5.13;;
48765;SDS011;65794;51.836;5.002;2023-10-13T13:01:53;18.70;;;6.22;;
48765;SDS011;65794;51.836;5.002;2023-10-13T13:04:20;17.02;;;5.80;;
48765;SDS011;65794;51.836;5.002;2023-10-13T13:06:48;19.02;;;5.75;;
48765;SDS011;65794;51.836;5.002;2023-10-13T13:09:15;21.02;;;5.60;;
48765;SDS011;65794;51.836;5.002;2023-10-13T13:11:42;17.05;;;5.20;;
48765;SDS011;65794;51.836;5.002;2023-10-13T13:14:09;21.67;;;5.80;;
48765;SDS011;65794;51.836;5.002;2023-10-13T13:16:36;19.15;;;5.97;;
48765;SDS011;65794;51.836;5.002;2023-10-13T13:19:05;26.35;;;6.45;;
48765;SDS011;65794;51.836;5.002;2023-10-13T13:21:40;22.67;;;6.55;;
48765;SDS011;65794;51.836;5.002;2023-10-13T13:24:07;17.90;;;6.00;;
48765;SDS011;65794;51.836;5.002;2023-10-13T13:26:40;29.08;;;7.18;;
48765;SDS011;65794;51.836;5.002;2023-10-13T13:29:07;21.17;;;6.32;;
48765;SDS011;65794;51.836;5.002;2023-10-13T13:31:37;23.55;;;5.43;;
48765;SDS011;65794;51.836;5.002;2023-10-13T13:34:12;17.55;;;6.22;;
48765;SDS011;65794;51.836;5.002;2023-10-13T13:36:42;18.52;;;6.22;;
48765;SDS011;65794;51.836;5.002;2023-10-13T13:39:11;23.52;;;6.32;;
48765;SDS011;65794;51.836;5.002;2023-10-13T13:41:37;19.55;;;5.57;;
48765;SDS011;65794;51.836;5.002;2023-10-13T13:44:04;25.48;;;6.07;;
48765;SDS011;65794;51.836;5.002;2023-10-13T13:46:42;20.95;;;5.97;;
48765;SDS011;65794;51.836;5.002;2023-10-13T13:49:09;17.25;;;5.20;;
48765;SDS011;65794;51.836;5.002;2023-10-13T13:51:46;19.83;;;5.63;;
48765;SDS011;65794;51.836;5.002;2023-10-13T13:54:19;23.58;;;5.60;;
48765;SDS011;65794;51.836;5.002;2023-10-13T13:56:47;15.57;;;5.70;;
48765;SDS011;65794;51.836;5.002;2023-10-13T13:59:14;19.92;;;6.03;;
48765;SDS011;65794;51.836;5.002;2023-10-13T14:01:46;16.95;;;5.18;;
48765;SDS011;65794;51.836;5.002;2023-10-13T14:04:14;15.52;;;5.68;;
48765;SDS011;65794;51.836;5.002;2023-10-13T14:06:44;17.50;;;5.05;;
48765;SDS011;65794;51.836;5.002;2023-10-13T14:09:11;16.52;;;5.50;;
48765;SDS011;65794;51.836;5.002;2023-10-13T14:11:42;14.95;;;5.63;;
48765;SDS011;65794;51.836;5.002;2023-10-13T14:14:28;21.95;;;5.78;;
48765;SDS011;65794;51.836;5.002;2023-10-13T14:16:56;12.13;;;4.75;;
48765;SDS011;65794;51.836;5.002;2023-10-13T14:19:35;18.23;;;5.00;;
48765;SDS011;65794;51.836;5.002;2023-10-13T14:22:07;23.88;;;5.70;;
48765;SDS011;65794;51.836;5.002;2023-10-13T14:24:34;18.60;;;5.90;;
48765;SDS011;65794;51.836;5.002;2023-10-13T14:27:02;22.33;;;5.68;;
48765;SDS011;65794;51.836;5.002;2023-10-13T14:29:46;18.63;;;5.70;;
48765;SDS011;65794;51.836;5.002;2023-10-13T14:32:14;16.33;;;5.60;;
48765;SDS011;65794;51.836;5.002;2023-10-13T14:34:42;13.60;;;5.47;;
48765;SDS011;65794;51.836;5.002;2023-10-13T14:37:10;19.38;;;5.40;;
48765;SDS011;65794;51.836;5.002;2023-10-13T14:39:40;14.88;;;5.63;;
48765;SDS011;65794;51.836;5.002;2023-10-13T14:42:07;20.95;;;6.10;;
48765;SDS011;65794;51.836;5.002;2023-10-13T14:44:34;13.73;;;5.47;;
48765;SDS011;65794;51.836;5.002;2023-10-13T14:47:01;20.27;;;5.72;;
48765;SDS011;65794;51.836;5.002;2023-10-13T14:49:28;17.73;;;5.85;;
48765;SDS011;65794;51.836;5.002;2023-10-13T14:51:55;19.50;;;5.60;;
48765;SDS011;65794;51.836;5.002;2023-10-13T14:54:22;17.50;;;5.93;;
48765;SDS011;65794;51.836;5.002;2023-10-13T14:57:00;21.88;;;6.95;;
48765;SDS011;65794;51.836;5.002;2023-10-13T14:59:27;15.68;;;6.30;;
48765;SDS011;65794;51.836;5.002;2023-10-13T15:02:00;18.13;;;6.07;;
48765;SDS011;65794;51.836;5.002;2023-10-13T15:04:28;22.92;;;7.03;;
48765;SDS011;65794;51.836;5.002;2023-10-13T15:06:59;17.70;;;6.45;;
48765;SDS011;65794;51.836;5.002;2023-10-13T15:09:28;13.50;;;6.20;;
48765;SDS011;65794;51.836;5.002;2023-10-13T15:11:55;14.23;;;5.78;;
48765;SDS011;65794;51.836;5.002;2023-10-13T15:14:22;18.25;;;6.93;;
48765;SDS011;65794;51.836;5.002;2023-10-13T15:16:49;13.88;;;5.97;;
48765;SDS011;65794;51.836;5.002;2023-10-13T15:19:16;23.05;;;7.95;;
48765;SDS011;65794;51.836;5.002;2023-10-13T15:21:44;26.88;;;9.43;;
48765;SDS011;65794;51.836;5.002;2023-10-13T15:24:15;20.98;;;6.57;;
48765;SDS011;65794;51.836;5.002;2023-10-13T15:26:53;24.58;;;6.15;;
48765;SDS011;65794;51.836;5.002;2023-10-13T15:29:34;16.48;;;6.10;;
48765;SDS011;65794;51.836;5.002;2023-10-13T15:32:04;21.48;;;6.50;;
48765;SDS011;65794;51.836;5.002;2023-10-13T15:34:52;16.05;;;5.93;;
48765;SDS011;65794;51.836;5.002;2023-10-13T15:37:19;21.10;;;6.22;;
48765;SDS011;65794;51.836;5.002;2023-10-13T15:39:47;13.20;;;5.53;;
48765;SDS011;65794;51.836;5.002;2023-10-13T15:42:13;15.23;;;5.75;;
48765;SDS011;65794;51.836;5.002;2023-10-13T15:44:40;18.42;;;5.85;;
48765;SDS011;65794;51.836;5.002;2023-10-13T15:47:09;19.42;;;6.30;;
48765;SDS011;65794;51.836;5.002;2023-10-13T15:49:41;26.65;;;7.68;;
48765;SDS011;65794;51.836;5.002;2023-10-13T15:52:09;23.17;;;6.80;;
48765;SDS011;65794;51.836;5.002;2023-10-13T15:54:36;11.40;;;5.50;;
48765;SDS011;65794;51.836;5.002;2023-10-13T15:57:03;14.63;;;5.60;;
48765;SDS011;65794;51.836;5.002;2023-10-13T15:59:33;19.45;;;6.30;;